Grangerland, Texas
Current Conditions -  °F | °C
As of 12:53 PM on Saturday 25 Oct 2014 (Local Time) from KCXO Reporting Station
Clear Clear  
Wind Chill: 81°   Ceiling: Unl
Heat Index: 81°   Visibility: 10mi
Dew Point: 58°   Wind: 3mph
Humidity: 45%   Direction: NA
Pressure: 30.16"   Gusts: NA
Location:  30.2363°N, 95.376°W
Report Text: KCXO 251753Z VRB03KT 10SM CLR 27/14 A3016 RMK AO2 SLP211 T02720144 10272 20106 58012
Loading
Personal Weather Stations






























Interactive Weather Map
Tropical Storm Tracking
New forecast layout! Learn more

10-Day Weather Forecast

Advertisements
Track Severe Weather on mobile